sensor_id;sensor_type;location;lat;lon;timestamp;temperature;humidity
8684;DHT22;4379;59.744;18.206;2024-01-15T00:01:16;-4.50;99.90
8684;DHT22;4379;59.744;18.206;2024-01-15T00:03:44;-4.60;99.90
8684;DHT22;4379;59.744;18.206;2024-01-15T00:06:13;-4.60;99.90
8684;DHT22;4379;59.744;18.206;2024-01-15T00:08:42;-4.50;99.90
8684;DHT22;4379;59.744;18.206;2024-01-15T00:11:09;-4.60;99.90
8684;DHT22;4379;59.744;18.206;2024-01-15T00:13:36;-4.70;99.90
8684;DHT22;4379;59.744;18.206;2024-01-15T00:16:06;-4.70;99.90
8684;DHT22;4379;59.744;18.206;2024-01-15T00:18:33;-4.70;99.90
8684;DHT22;4379;59.744;18.206;2024-01-15T00:21:00;-4.60;99.90
8684;DHT22;4379;59.744;18.206;2024-01-15T00:23:28;-4.60;99.90
8684;DHT22;4379;59.744;18.206;2024-01-15T00:25:55;-4.60;99.90
8684;DHT22;4379;59.744;18.206;2024-01-15T00:28:22;-4.70;99.90
8684;DHT22;4379;59.744;18.206;2024-01-15T00:30:49;-4.60;99.90
8684;DHT22;4379;59.744;18.206;2024-01-15T00:33:16;-4.60;99.90
8684;DHT22;4379;59.744;18.206;2024-01-15T00:35:44;-4.80;99.90
8684;DHT22;4379;59.744;18.206;2024-01-15T00:38:11;-4.70;99.90
8684;DHT22;4379;59.744;18.206;2024-01-15T00:40:41;-4.70;99.90
8684;DHT22;4379;59.744;18.206;2024-01-15T00:43:08;-4.80;99.90
8684;DHT22;4379;59.744;18.206;2024-01-15T00:45:35;-4.70;99.90
8684;DHT22;4379;59.744;18.206;2024-01-15T00:48:03;-4.70;99.90
8684;DHT22;4379;59.744;18.206;2024-01-15T00:50:30;-4.70;99.90
8684;DHT22;4379;59.744;18.206;2024-01-15T00:52:58;-4.60;99.90
8684;DHT22;4379;59.744;18.206;2024-01-15T00:55:25;-4.70;99.90
8684;DHT22;4379;59.744;18.206;2024-01-15T00:57:53;-4.80;99.90
8684;DHT22;4379;59.744;18.206;2024-01-15T01:00:20;-4.90;99.90
8684;DHT22;4379;59.744;18.206;2024-01-15T01:02:47;-4.90;99.90
8684;DHT22;4379;59.744;18.206;2024-01-15T01:05:15;-4.80;99.90
8684;DHT22;4379;59.744;18.206;2024-01-15T01:07:42;-4.70;99.90
8684;DHT22;4379;59.744;18.206;2024-01-15T01:10:09;-4.90;99.90
8684;DHT22;4379;59.744;18.206;2024-01-15T01:12:36;-4.90;99.90
8684;DHT22;4379;59.744;18.206;2024-01-15T01:15:04;-4.90;99.90
8684;DHT22;4379;59.744;18.206;2024-01-15T01:17:31;-5.00;99.90
8684;DHT22;4379;59.744;18.206;2024-01-15T01:19:59;-5.00;99.90
8684;DHT22;4379;59.744;18.206;2024-01-15T01:22:26;-5.00;99.90
8684;DHT22;4379;59.744;18.206;2024-01-15T01:24:53;-5.00;99.90
8684;DHT22;4379;59.744;18.206;2024-01-15T01:27:21;-5.00;99.90
8684;DHT22;4379;59.744;18.206;2024-01-15T01:29:48;-5.00;99.90
8684;DHT22;4379;59.744;18.206;2024-01-15T01:32:16;-5.00;99.90
8684;DHT22;4379;59.744;18.206;2024-01-15T01:34:43;-5.10;99.90
8684;DHT22;4379;59.744;18.206;2024-01-15T01:37:11;-5.10;99.90
8684;DHT22;4379;59.744;18.206;2024-01-15T01:39:41;-5.00;99.90
8684;DHT22;4379;59.744;18.206;2024-01-15T01:42:09;-5.00;99.90
8684;DHT22;4379;59.744;18.206;2024-01-15T01:44:37;-5.10;99.90
8684;DHT22;4379;59.744;18.206;2024-01-15T01:47:04;-5.10;99.90
8684;DHT22;4379;59.744;18.206;2024-01-15T01:49:32;-5.10;99.90
8684;DHT22;4379;59.744;18.206;2024-01-15T01:52:00;-5.00;99.90
8684;DHT22;4379;59.744;18.206;2024-01-15T01:54:29;-4.90;99.90
8684;DHT22;4379;59.744;18.206;2024-01-15T01:57:02;-5.00;99.90
8684;DHT22;4379;59.744;18.206;2024-01-15T01:59:31;-5.10;99.90
8684;DHT22;4379;59.744;18.206;2024-01-15T02:02:00;-5.10;99.90
8684;DHT22;4379;59.744;18.206;2024-01-15T02:04:30;-5.00;99.90
8684;DHT22;4379;59.744;18.206;2024-01-15T02:06:59;-4.90;99.90
8684;DHT22;4379;59.744;18.206;2024-01-15T02:09:27;-5.00;99.90
8684;DHT22;4379;59.744;18.206;2024-01-15T02:11:55;-5.10;99.90
8684;DHT22;4379;59.744;18.206;2024-01-15T02:14:22;-5.20;99.90
8684;DHT22;4379;59.744;18.206;2024-01-15T02:16:49;-5.20;99.90
8684;DHT22;4379;59.744;18.206;2024-01-15T02:19:17;-5.20;99.90
8684;DHT22;4379;59.744;18.206;2024-01-15T02:21:44;-5.10;99.90
8684;DHT22;4379;59.744;18.206;2024-01-15T02:24:12;-5.10;99.90
8684;DHT22;4379;59.744;18.206;2024-01-15T02:26:39;-5.10;99.90
8684;DHT22;4379;59.744;18.206;2024-01-15T02:29:10;-5.10;99.90
8684;DHT22;4379;59.744;18.206;2024-01-15T02:31:38;-5.10;99.90
8684;DHT22;4379;59.744;18.206;2024-01-15T02:34:06;-5.00;99.90
8684;DHT22;4379;59.744;18.206;2024-01-15T02:36:34;-4.90;99.90
8684;DHT22;4379;59.744;18.206;2024-01-15T02:39:01;-5.00;99.90
8684;DHT22;4379;59.744;18.206;2024-01-15T02:41:29;-4.90;99.90
8684;DHT22;4379;59.744;18.206;2024-01-15T02:43:56;-5.00;99.90
8684;DHT22;4379;59.744;18.206;2024-01-15T02:46:23;-5.00;99.90
8684;DHT22;4379;59.744;18.206;2024-01-15T02:48:50;-5.10;99.90
8684;DHT22;4379;59.744;18.206;2024-01-15T02:51:18;-5.10;99.90
8684;DHT22;4379;59.744;18.206;2024-01-15T02:53:45;-5.10;99.90
8684;DHT22;4379;59.744;18.206;2024-01-15T02:56:12;-5.10;99.90
8684;DHT22;4379;59.744;18.206;2024-01-15T02:58:39;-5.20;99.90
8684;DHT22;4379;59.744;18.206;2024-01-15T03:01:06;-5.20;99.90
8684;DHT22;4379;59.744;18.206;2024-01-15T03:03:40;-5.30;99.90
8684;DHT22;4379;59.744;18.206;2024-01-15T03:06:07;-5.20;99.90
8684;DHT22;4379;59.744;18.206;2024-01-15T03:08:34;-5.20;99.90
8684;DHT22;4379;59.744;18.206;2024-01-15T03:11:02;-5.30;99.90
8684;DHT22;4379;59.744;18.206;2024-01-15T03:13:29;-5.30;99.90
8684;DHT22;4379;59.744;18.206;2024-01-15T03:15:56;-5.30;99.90
8684;DHT22;4379;59.744;18.206;2024-01-15T03:18:25;-5.20;99.90
8684;DHT22;4379;59.744;18.206;2024-01-15T03:20:53;-5.30;99.90
8684;DHT22;4379;59.744;18.206;2024-01-15T03:23:20;-5.40;99.90
8684;DHT22;4379;59.744;18.206;2024-01-15T03:25:47;-5.40;99.90
8684;DHT22;4379;59.744;18.206;2024-01-15T03:28:14;-5.30;99.90
8684;DHT22;4379;59.744;18.206;2024-01-15T03:30:41;-5.20;99.90
8684;DHT22;4379;59.744;18.206;2024-01-15T03:33:08;-5.20;99.90
8684;DHT22;4379;59.744;18.206;2024-01-15T03:35:35;-5.30;99.90
8684;DHT22;4379;59.744;18.206;2024-01-15T03:38:03;-5.30;99.90
8684;DHT22;4379;59.744;18.206;2024-01-15T03:40:30;-5.40;99.90
8684;DHT22;4379;59.744;18.206;2024-01-15T03:42:57;-5.40;99.90
8684;DHT22;4379;59.744;18.206;2024-01-15T03:45:24;-5.40;99.90
8684;DHT22;4379;59.744;18.206;2024-01-15T03:47:51;-5.40;99.90
8684;DHT22;4379;59.744;18.206;2024-01-15T03:50:18;-5.40;99.90
8684;DHT22;4379;59.744;18.206;2024-01-15T03:52:46;-5.50;99.90
8684;DHT22;4379;59.744;18.206;2024-01-15T03:55:13;-5.40;99.90
8684;DHT22;4379;59.744;18.206;2024-01-15T03:57:40;-5.30;99.90
8684;DHT22;4379;59.744;18.206;2024-01-15T04:00:07;-5.30;99.90
8684;DHT22;4379;59.744;18.206;2024-01-15T04:02:35;-5.40;99.90
8684;DHT22;4379;59.744;18.206;2024-01-15T04:05:02;-5.30;99.90
8684;DHT22;4379;59.744;18.206;2024-01-15T04:07:30;-5.30;99.90
8684;DHT22;4379;59.744;18.206;2024-01-15T04:09:57;-5.30;99.90
8684;DHT22;4379;59.744;18.206;2024-01-15T04:12:24;-5.40;99.90
8684;DHT22;4379;59.744;18.206;2024-01-15T04:14:52;-5.40;99.90
8684;DHT22;4379;59.744;18.206;2024-01-15T04:17:19;-5.20;99.90
8684;DHT22;4379;59.744;18.206;2024-01-15T04:19:46;-5.20;99.90
8684;DHT22;4379;59.744;18.206;2024-01-15T04:22:15;-5.20;99.90
8684;DHT22;4379;59.744;18.206;2024-01-15T04:24:42;-5.20;99.90
8684;DHT22;4379;59.744;18.206;2024-01-15T04:27:09;-5.20;99.90
8684;DHT22;4379;59.744;18.206;2024-01-15T04:29:39;-5.30;99.90
8684;DHT22;4379;59.744;18.206;2024-01-15T04:32:07;-5.40;99.90
8684;DHT22;4379;59.744;18.206;2024-01-15T04:34:34;-5.40;99.90
8684;DHT22;4379;59.744;18.206;2024-01-15T04:37:01;-5.40;99.90
8684;DHT22;4379;59.744;18.206;2024-01-15T04:39:29;-5.40;99.90
8684;DHT22;4379;59.744;18.206;2024-01-15T04:41:56;-5.40;99.90
8684;DHT22;4379;59.744;18.206;2024-01-15T04:44:23;-5.50;99.90
8684;DHT22;4379;59.744;18.206;2024-01-15T04:46:52;-5.50;99.90
8684;DHT22;4379;59.744;18.206;2024-01-15T04:49:19;-5.40;99.90
8684;DHT22;4379;59.744;18.206;2024-01-15T04:51:46;-5.40;99.90
8684;DHT22;4379;59.744;18.206;2024-01-15T04:54:15;-5.40;99.90
8684;DHT22;4379;59.744;18.206;2024-01-15T04:56:45;-5.40;99.90
8684;DHT22;4379;59.744;18.206;2024-01-15T04:59:13;-5.40;99.90
8684;DHT22;4379;59.744;18.206;2024-01-15T05:01:41;-5.50;99.90
8684;DHT22;4379;59.744;18.206;2024-01-15T05:04:09;-5.40;99.90
8684;DHT22;4379;59.744;18.206;2024-01-15T05:06:36;-5.50;99.90
8684;DHT22;4379;59.744;18.206;2024-01-15T05:09:03;-5.40;99.90
8684;DHT22;4379;59.744;18.206;2024-01-15T05:11:31;-5.50;99.90
8684;DHT22;4379;59.744;18.206;2024-01-15T05:13:58;-5.60;99.90
8684;DHT22;4379;59.744;18.206;2024-01-15T05:16:25;-5.60;99.90
8684;DHT22;4379;59.744;18.206;2024-01-15T05:18:52;-5.60;99.90
8684;DHT22;4379;59.744;18.206;2024-01-15T05:21:20;-5.60;99.90
8684;DHT22;4379;59.744;18.206;2024-01-15T05:23:47;-5.60;99.90
8684;DHT22;4379;59.744;18.206;2024-01-15T05:26:14;-5.60;99.90
8684;DHT22;4379;59.744;18.206;2024-01-15T05:28:41;-5.70;99.90
8684;DHT22;4379;59.744;18.206;2024-01-15T05:31:09;-5.70;99.90
8684;DHT22;4379;59.744;18.206;2024-01-15T05:33:38;-5.70;99.90
8684;DHT22;4379;59.744;18.206;2024-01-15T05:36:05;-5.80;99.90
8684;DHT22;4379;59.744;18.206;2024-01-15T05:38:33;-5.80;99.90
8684;DHT22;4379;59.744;18.206;2024-01-15T05:41:00;-5.80;99.90
8684;DHT22;4379;59.744;18.206;2024-01-15T05:43:27;-5.80;99.90
8684;DHT22;4379;59.744;18.206;2024-01-15T05:45:54;-5.80;99.90
8684;DHT22;4379;59.744;18.206;2024-01-15T05:48:21;-5.80;99.90
8684;DHT22;4379;59.744;18.206;2024-01-15T05:50:49;-5.80;99.90
8684;DHT22;4379;59.744;18.206;2024-01-15T05:53:16;-5.90;99.90
8684;DHT22;4379;59.744;18.206;2024-01-15T05:55:43;-5.90;99.90
8684;DHT22;4379;59.744;18.206;2024-01-15T05:58:10;-5.90;99.90
8684;DHT22;4379;59.744;18.206;2024-01-15T06:00:37;-5.90;99.90
8684;DHT22;4379;59.744;18.206;2024-01-15T06:03:05;-5.90;99.90
8684;DHT22;4379;59.744;18.206;2024-01-15T06:05:32;-5.80;99.90
8684;DHT22;4379;59.744;18.206;2024-01-15T06:08:00;-5.80;99.90
8684;DHT22;4379;59.744;18.206;2024-01-15T06:10:27;-5.90;99.90
8684;DHT22;4379;59.744;18.206;2024-01-15T06:12:54;-5.90;99.90
8684;DHT22;4379;59.744;18.206;2024-01-15T06:15:21;-6.00;99.90
8684;DHT22;4379;59.744;18.206;2024-01-15T06:17:48;-6.00;99.90
8684;DHT22;4379;59.744;18.206;2024-01-15T06:20:16;-6.00;99.90
8684;DHT22;4379;59.744;18.206;2024-01-15T06:22:44;-5.90;99.90
8684;DHT22;4379;59.744;18.206;2024-01-15T06:25:11;-5.90;99.90
8684;DHT22;4379;59.744;18.206;2024-01-15T06:27:38;-6.00;99.90
8684;DHT22;4379;59.744;18.206;2024-01-15T06:30:06;-5.90;99.90
8684;DHT22;4379;59.744;18.206;2024-01-15T06:32:33;-6.00;99.90
8684;DHT22;4379;59.744;18.206;2024-01-15T06:35:01;-6.00;99.90
8684;DHT22;4379;59.744;18.206;2024-01-15T06:37:28;-6.00;99.90
8684;DHT22;4379;59.744;18.206;2024-01-15T06:39:55;-5.90;99.90
8684;DHT22;4379;59.744;18.206;2024-01-15T06:42:24;-5.90;99.90
8684;DHT22;4379;59.744;18.206;2024-01-15T06:44:54;-6.00;99.90
8684;DHT22;4379;59.744;18.206;2024-01-15T06:47:21;-6.00;99.90
8684;DHT22;4379;59.744;18.206;2024-01-15T06:49:48;-6.00;99.90
8684;DHT22;4379;59.744;18.206;2024-01-15T06:52:17;-6.00;99.90
8684;DHT22;4379;59.744;18.206;2024-01-15T06:54:44;-5.90;99.90
8684;DHT22;4379;59.744;18.206;2024-01-15T06:57:11;-6.00;99.90
8684;DHT22;4379;59.744;18.206;2024-01-15T06:59:39;-6.00;99.90
8684;DHT22;4379;59.744;18.206;2024-01-15T07:02:06;-6.00;99.90
8684;DHT22;4379;59.744;18.206;2024-01-15T07:04:33;-6.10;99.90
8684;DHT22;4379;59.744;18.206;2024-01-15T07:07:00;-6.10;99.90
8684;DHT22;4379;59.744;18.206;2024-01-15T07:09:27;-6.10;99.90
8684;DHT22;4379;59.744;18.206;2024-01-15T07:11:54;-6.10;99.90
8684;DHT22;4379;59.744;18.206;2024-01-15T07:14:23;-6.10;99.90
8684;DHT22;4379;59.744;18.206;2024-01-15T07:16:51;-6.00;99.90
8684;DHT22;4379;59.744;18.206;2024-01-15T07:19:18;-6.00;99.90
8684;DHT22;4379;59.744;18.206;2024-01-15T07:21:45;-6.10;99.90
8684;DHT22;4379;59.744;18.206;2024-01-15T07:24:14;-6.00;99.90
8684;DHT22;4379;59.744;18.206;2024-01-15T07:26:42;-6.00;99.90
8684;DHT22;4379;59.744;18.206;2024-01-15T07:29:09;-6.00;99.90
8684;DHT22;4379;59.744;18.206;2024-01-15T07:31:36;-6.00;99.90
8684;DHT22;4379;59.744;18.206;2024-01-15T07:34:06;-5.90;99.90
8684;DHT22;4379;59.744;18.206;2024-01-15T07:36:33;-5.90;99.90
8684;DHT22;4379;59.744;18.206;2024-01-15T07:39:00;-6.00;99.90
8684;DHT22;4379;59.744;18.206;2024-01-15T07:41:27;-5.90;99.90
8684;DHT22;4379;59.744;18.206;2024-01-15T07:43:54;-5.90;99.90
8684;DHT22;4379;59.744;18.206;2024-01-15T07:46:21;-5.90;99.90
8684;DHT22;4379;59.744;18.206;2024-01-15T07:48:48;-5.90;99.90
8684;DHT22;4379;59.744;18.206;2024-01-15T07:51:18;-5.90;99.90
8684;DHT22;4379;59.744;18.206;2024-01-15T07:53:45;-6.00;99.90
8684;DHT22;4379;59.744;18.206;2024-01-15T07:56:12;-6.00;99.90
8684;DHT22;4379;59.744;18.206;2024-01-15T07:58:39;-6.00;99.90
8684;DHT22;4379;59.744;18.206;2024-01-15T08:01:07;-6.00;99.90
8684;DHT22;4379;59.744;18.206;2024-01-15T08:03:34;-6.00;99.90
8684;DHT22;4379;59.744;18.206;2024-01-15T08:06:01;-6.00;99.90
8684;DHT22;4379;59.744;18.206;2024-01-15T08:08:29;-6.00;99.90
8684;DHT22;4379;59.744;18.206;2024-01-15T08:10:56;-6.00;99.90
8684;DHT22;4379;59.744;18.206;2024-01-15T08:13:27;-6.00;99.90
8684;DHT22;4379;59.744;18.206;2024-01-15T08:15:54;-5.90;99.90
8684;DHT22;4379;59.744;18.206;2024-01-15T08:18:21;-5.90;99.90
8684;DHT22;4379;59.744;18.206;2024-01-15T08:20:49;-5.90;99.90
8684;DHT22;4379;59.744;18.206;2024-01-15T08:23:18;-5.90;99.90
8684;DHT22;4379;59.744;18.206;2024-01-15T08:25:46;-5.90;99.90
8684;DHT22;4379;59.744;18.206;2024-01-15T08:28:13;-5.90;99.90
8684;DHT22;4379;59.744;18.206;2024-01-15T08:30:40;-5.90;99.90
8684;DHT22;4379;59.744;18.206;2024-01-15T08:33:07;-5.90;99.90
8684;DHT22;4379;59.744;18.206;2024-01-15T08:35:47;-6.00;99.90
8684;DHT22;4379;59.744;18.206;2024-01-15T08:38:14;-5.90;99.90
8684;DHT22;4379;59.744;18.206;2024-01-15T08:40:41;-5.90;99.90
8684;DHT22;4379;59.744;18.206;2024-01-15T08:43:08;-5.80;99.90
8684;DHT22;4379;59.744;18.206;2024-01-15T08:45:35;-5.80;99.90
8684;DHT22;4379;59.744;18.206;2024-01-15T08:48:02;-5.80;99.90
8684;DHT22;4379;59.744;18.206;2024-01-15T08:50:32;-5.80;99.90
8684;DHT22;4379;59.744;18.206;2024-01-15T08:52:59;-5.80;99.90
8684;DHT22;4379;59.744;18.206;2024-01-15T08:55:28;-5.80;99.90
8684;DHT22;4379;59.744;18.206;2024-01-15T08:57:55;-5.90;99.90
8684;DHT22;4379;59.744;18.206;2024-01-15T09:00:22;-5.90;99.90
8684;DHT22;4379;59.744;18.206;2024-01-15T09:02:49;-5.80;99.90
8684;DHT22;4379;59.744;18.206;2024-01-15T09:05:17;-5.90;99.90
8684;DHT22;4379;59.744;18.206;2024-01-15T09:07:44;-5.80;99.90
8684;DHT22;4379;59.744;18.206;2024-01-15T09:10:12;-5.70;99.90
8684;DHT22;4379;59.744;18.206;2024-01-15T09:12:40;-5.70;99.90
8684;DHT22;4379;59.744;18.206;2024-01-15T09:15:07;-5.70;99.90
8684;DHT22;4379;59.744;18.206;2024-01-15T09:17:35;-5.70;99.90
8684;DHT22;4379;59.744;18.206;2024-01-15T09:20:03;-5.70;99.90
8684;DHT22;4379;59.744;18.206;2024-01-15T09:22:32;-5.70;99.90
8684;DHT22;4379;59.744;18.206;2024-01-15T09:24:59;-5.70;99.90
8684;DHT22;4379;59.744;18.206;2024-01-15T09:27:27;-5.80;99.90
8684;DHT22;4379;59.744;18.206;2024-01-15T09:29:54;-5.60;99.90
8684;DHT22;4379;59.744;18.206;2024-01-15T09:32:21;-5.70;99.90
8684;DHT22;4379;59.744;18.206;2024-01-15T09:34:48;-5.80;99.90
8684;DHT22;4379;59.744;18.206;2024-01-15T09:37:16;-5.80;99.90
8684;DHT22;4379;59.744;18.206;2024-01-15T09:40:04;-5.80;99.90
8684;DHT22;4379;59.744;18.206;2024-01-15T09:42:34;-5.70;99.90
8684;DHT22;4379;59.744;18.206;2024-01-15T09:45:02;-5.70;99.90
8684;DHT22;4379;59.744;18.206;2024-01-15T09:47:30;-5.70;99.90
8684;DHT22;4379;59.744;18.206;2024-01-15T09:49:57;-5.70;99.90
8684;DHT22;4379;59.744;18.206;2024-01-15T09:52:25;-5.80;99.90
8684;DHT22;4379;59.744;18.206;2024-01-15T09:54:53;-5.60;99.90
8684;DHT22;4379;59.744;18.206;2024-01-15T09:57:21;-5.60;99.90
8684;DHT22;4379;59.744;18.206;2024-01-15T09:59:50;-5.70;99.90
8684;DHT22;4379;59.744;18.206;2024-01-15T10:02:18;-5.60;99.90
8684;DHT22;4379;59.744;18.206;2024-01-15T10:04:46;-5.50;99.90
8684;DHT22;4379;59.744;18.206;2024-01-15T10:07:19;-5.60;99.90
8684;DHT22;4379;59.744;18.206;2024-01-15T10:09:47;-5.60;99.90
8684;DHT22;4379;59.744;18.206;2024-01-15T10:12:14;-5.70;99.90
8684;DHT22;4379;59.744;18.206;2024-01-15T10:14:42;-5.50;99.90
8684;DHT22;4379;59.744;18.206;2024-01-15T10:17:13;-5.60;99.90
8684;DHT22;4379;59.744;18.206;2024-01-15T10:19:42;-5.70;99.90
8684;DHT22;4379;59.744;18.206;2024-01-15T10:22:15;-5.60;99.90
8684;DHT22;4379;59.744;18.206;2024-01-15T10:24:42;-5.60;99.90
8684;DHT22;4379;59.744;18.206;2024-01-15T10:27:10;-5.70;99.90
8684;DHT22;4379;59.744;18.206;2024-01-15T10:29:38;-5.70;99.90
8684;DHT22;4379;59.744;18.206;2024-01-15T10:32:09;-5.50;99.90
8684;DHT22;4379;59.744;18.206;2024-01-15T10:34:40;-5.50;99.90
8684;DHT22;4379;59.744;18.206;2024-01-15T10:37:09;-5.40;99.90
8684;DHT22;4379;59.744;18.206;2024-01-15T10:39:36;-5.50;99.90
8684;DHT22;4379;59.744;18.206;2024-01-15T10:42:05;-5.60;99.90
8684;DHT22;4379;59.744;18.206;2024-01-15T10:44:42;-5.60;99.90
8684;DHT22;4379;59.744;18.206;2024-01-15T10:47:18;-5.60;99.90
8684;DHT22;4379;59.744;18.206;2024-01-15T10:49:47;-5.70;99.90
8684;DHT22;4379;59.744;18.206;2024-01-15T10:52:54;-5.60;99.90
8684;DHT22;4379;59.744;18.206;2024-01-15T10:55:23;-5.70;99.90
8684;DHT22;4379;59.744;18.206;2024-01-15T10:57:52;-5.70;99.90
8684;DHT22;4379;59.744;18.206;2024-01-15T11:00:20;-5.70;99.90
8684;DHT22;4379;59.744;18.206;2024-01-15T11:02:48;-5.70;99.90
8684;DHT22;4379;59.744;18.206;2024-01-15T11:05:15;-5.70;99.90
8684;DHT22;4379;59.744;18.206;2024-01-15T11:07:45;-5.60;99.90
8684;DHT22;4379;59.744;18.206;2024-01-15T11:10:38;-5.50;99.90
8684;DHT22;4379;59.744;18.206;2024-01-15T11:13:53;-5.50;99.90
8684;DHT22;4379;59.744;18.206;2024-01-15T11:16:03;-5.50;99.90
8684;DHT22;4379;59.744;18.206;2024-01-15T11:18:36;-5.70;99.90
8684;DHT22;4379;59.744;18.206;2024-01-15T11:24:01;-5.60;99.90
8684;DHT22;4379;59.744;18.206;2024-01-15T11:26:44;-5.60;99.90
8684;DHT22;4379;59.744;18.206;2024-01-15T11:34:59;-5.80;99.90
8684;DHT22;4379;59.744;18.206;2024-01-15T11:40:19;-5.70;99.90
8684;DHT22;4379;59.744;18.206;2024-01-15T11:42:47;-5.70;99.90
8684;DHT22;4379;59.744;18.206;2024-01-15T11:45:24;-5.70;99.90
8684;DHT22;4379;59.744;18.206;2024-01-15T11:48:16;-5.70;99.90
8684;DHT22;4379;59.744;18.206;2024-01-15T11:50:47;-5.70;99.90
8684;DHT22;4379;59.744;18.206;2024-01-15T11:53:40;-5.70;99.90
8684;DHT22;4379;59.744;18.206;2024-01-15T11:56:22;-5.60;99.90
8684;DHT22;4379;59.744;18.206;2024-01-15T11:58:50;-5.60;99.90
8684;DHT22;4379;59.744;18.206;2024-01-15T12:01:18;-5.70;99.90
8684;DHT22;4379;59.744;18.206;2024-01-15T12:03:47;-5.70;99.90
8684;DHT22;4379;59.744;18.206;2024-01-15T12:06:14;-5.70;99.90
8684;DHT22;4379;59.744;18.206;2024-01-15T12:08:42;-5.70;99.90
8684;DHT22;4379;59.744;18.206;2024-01-15T12:11:13;-5.80;99.90
8684;DHT22;4379;59.744;18.206;2024-01-15T12:13:42;-5.80;99.90
8684;DHT22;4379;59.744;18.206;2024-01-15T12:16:10;-5.70;99.90
8684;DHT22;4379;59.744;18.206;2024-01-15T12:18:37;-5.80;99.90
8684;DHT22;4379;59.744;18.206;2024-01-15T12:21:05;-5.80;99.90
8684;DHT22;4379;59.744;18.206;2024-01-15T12:23:33;-5.80;99.90
8684;DHT22;4379;59.744;18.206;2024-01-15T12:26:00;-5.80;99.90
8684;DHT22;4379;59.744;18.206;2024-01-15T12:28:28;-5.90;99.90
8684;DHT22;4379;59.744;18.206;2024-01-15T12:30:55;-5.80;99.90
8684;DHT22;4379;59.744;18.206;2024-01-15T12:33:23;-5.90;99.90
8684;DHT22;4379;59.744;18.206;2024-01-15T12:35:53;-5.80;99.90
8684;DHT22;4379;59.744;18.206;2024-01-15T12:38:20;-5.80;99.90
8684;DHT22;4379;59.744;18.206;2024-01-15T12:40:48;-5.80;99.90
8684;DHT22;4379;59.744;18.206;2024-01-15T12:43:15;-5.80;99.90
8684;DHT22;4379;59.744;18.206;2024-01-15T12:45:42;-5.90;99.90
8684;DHT22;4379;59.744;18.206;2024-01-15T12:48:10;-5.90;99.90
8684;DHT22;4379;59.744;18.206;2024-01-15T12:50:37;-5.90;99.90
8684;DHT22;4379;59.744;18.206;2024-01-15T12:53:05;-5.90;99.90
8684;DHT22;4379;59.744;18.206;2024-01-15T12:55:32;-5.90;99.90
8684;DHT22;4379;59.744;18.206;2024-01-15T12:57:59;-5.90;99.90
8684;DHT22;4379;59.744;18.206;2024-01-15T13:00:27;-5.90;99.90
8684;DHT22;4379;59.744;18.206;2024-01-15T13:02:54;-5.80;99.90
8684;DHT22;4379;59.744;18.206;2024-01-15T13:05:22;-5.80;99.90
8684;DHT22;4379;59.744;18.206;2024-01-15T13:07:51;-5.90;99.90
8684;DHT22;4379;59.744;18.206;2024-01-15T13:10:18;-5.90;99.90
8684;DHT22;4379;59.744;18.206;2024-01-15T13:12:45;-6.00;99.90
8684;DHT22;4379;59.744;18.206;2024-01-15T13:15:12;-6.00;99.90
8684;DHT22;4379;59.744;18.206;2024-01-15T13:17:42;-6.00;99.90
8684;DHT22;4379;59.744;18.206;2024-01-15T13:20:10;-5.90;99.90
8684;DHT22;4379;59.744;18.206;2024-01-15T13:22:39;-5.90;99.90
8684;DHT22;4379;59.744;18.206;2024-01-15T13:25:07;-5.90;99.90
8684;DHT22;4379;59.744;18.206;2024-01-15T13:27:36;-6.00;99.90
8684;DHT22;4379;59.744;18.206;2024-01-15T13:30:05;-6.10;99.90
8684;DHT22;4379;59.744;18.206;2024-01-15T13:32:34;-6.20;99.90
8684;DHT22;4379;59.744;18.206;2024-01-15T13:35:02;-6.10;99.90
8684;DHT22;4379;59.744;18.206;2024-01-15T13:37:32;-6.20;99.90
8684;DHT22;4379;59.744;18.206;2024-01-15T13:39:59;-6.20;99.90
8684;DHT22;4379;59.744;18.206;2024-01-15T13:42:27;-6.30;99.90
8684;DHT22;4379;59.744;18.206;2024-01-15T13:44:54;-6.20;99.90
8684;DHT22;4379;59.744;18.206;2024-01-15T13:47:22;-6.20;99.90
8684;DHT22;4379;59.744;18.206;2024-01-15T13:49:49;-6.20;99.90
8684;DHT22;4379;59.744;18.206;2024-01-15T13:52:17;-6.20;99.90
8684;DHT22;4379;59.744;18.206;2024-01-15T13:54:44;-6.30;99.90
8684;DHT22;4379;59.744;18.206;2024-01-15T13:57:17;-6.10;99.90
8684;DHT22;4379;59.744;18.206;2024-01-15T13:59:45;-6.10;99.90
8684;DHT22;4379;59.744;18.206;2024-01-15T14:02:13;-6.10;99.90
8684;DHT22;4379;59.744;18.206;2024-01-15T14:04:47;-6.10;99.90
8684;DHT22;4379;59.744;18.206;2024-01-15T14:07:14;-6.20;99.90
8684;DHT22;4379;59.744;18.206;2024-01-15T14:09:42;-6.20;99.90
8684;DHT22;4379;59.744;18.206;2024-01-15T14:12:09;-6.20;99.90
8684;DHT22;4379;59.744;18.206;2024-01-15T14:14:37;-6.10;99.90
8684;DHT22;4379;59.744;18.206;2024-01-15T14:17:04;-6.20;99.90
8684;DHT22;4379;59.744;18.206;2024-01-15T14:19:32;-6.20;99.90
8684;DHT22;4379;59.744;18.206;2024-01-15T14:22:00;-6.10;99.90
8684;DHT22;4379;59.744;18.206;2024-01-15T14:24:27;-6.30;99.90
8684;DHT22;4379;59.744;18.206;2024-01-15T14:26:54;-6.20;99.90
8684;DHT22;4379;59.744;18.206;2024-01-15T14:29:25;-6.30;99.90
8684;DHT22;4379;59.744;18.206;2024-01-15T14:31:53;-6.30;99.90
8684;DHT22;4379;59.744;18.206;2024-01-15T14:34:21;-6.30;99.90
8684;DHT22;4379;59.744;18.206;2024-01-15T14:36:52;-6.30;99.90
8684;DHT22;4379;59.744;18.206;2024-01-15T14:39:23;-6.30;99.90
8684;DHT22;4379;59.744;18.206;2024-01-15T14:41:50;-6.30;99.90
8684;DHT22;4379;59.744;18.206;2024-01-15T14:44:18;-6.30;99.90
8684;DHT22;4379;59.744;18.206;2024-01-15T14:46:46;-6.30;99.90
8684;DHT22;4379;59.744;18.206;2024-01-15T14:49:13;-6.30;99.90
8684;DHT22;4379;59.744;18.206;2024-01-15T14:51:41;-6.30;99.90
8684;DHT22;4379;59.744;18.206;2024-01-15T14:54:09;-6.30;99.90
8684;DHT22;4379;59.744;18.206;2024-01-15T14:56:36;-6.20;99.90
8684;DHT22;4379;59.744;18.206;2024-01-15T14:59:03;-6.30;99.90
8684;DHT22;4379;59.744;18.206;2024-01-15T15:01:30;-6.30;99.90
8684;DHT22;4379;59.744;18.206;2024-01-15T15:03:58;-6.20;99.90
8684;DHT22;4379;59.744;18.206;2024-01-15T15:06:25;-6.20;99.90
8684;DHT22;4379;59.744;18.206;2024-01-15T15:08:54;-6.30;99.90
8684;DHT22;4379;59.744;18.206;2024-01-15T15:11:25;-6.20;99.90
8684;DHT22;4379;59.744;18.206;2024-01-15T15:13:53;-6.30;99.90
8684;DHT22;4379;59.744;18.206;2024-01-15T15:16:20;-6.30;99.90
8684;DHT22;4379;59.744;18.206;2024-01-15T15:18:47;-6.30;99.90
8684;DHT22;4379;59.744;18.206;2024-01-15T15:21:16;-6.30;99.90
8684;DHT22;4379;59.744;18.206;2024-01-15T15:23:43;-6.20;99.90
8684;DHT22;4379;59.744;18.206;2024-01-15T15:26:10;-6.20;99.90
8684;DHT22;4379;59.744;18.206;2024-01-15T15:28:37;-6.20;99.90
8684;DHT22;4379;59.744;18.206;2024-01-15T15:31:06;-6.20;99.90
8684;DHT22;4379;59.744;18.206;2024-01-15T15:33:35;-6.40;99.90
8684;DHT22;4379;59.744;18.206;2024-01-15T15:36:03;-6.40;99.90
8684;DHT22;4379;59.744;18.206;2024-01-15T15:38:34;-6.40;99.90
8684;DHT22;4379;59.744;18.206;2024-01-15T15:41:01;-6.50;99.90
8684;DHT22;4379;59.744;18.206;2024-01-15T15:43:29;-6.60;99.90
8684;DHT22;4379;59.744;18.206;2024-01-15T15:46:00;-6.50;99.90
8684;DHT22;4379;59.744;18.206;2024-01-15T15:48:28;-6.50;99.90
8684;DHT22;4379;59.744;18.206;2024-01-15T15:50:55;-6.50;99.90
8684;DHT22;4379;59.744;18.206;2024-01-15T15:53:23;-6.50;99.90
8684;DHT22;4379;59.744;18.206;2024-01-15T15:55:51;-6.40;99.90
8684;DHT22;4379;59.744;18.206;2024-01-15T15:58:21;-6.30;99.90
8684;DHT22;4379;59.744;18.206;2024-01-15T16:00:49;-6.30;99.90
8684;DHT22;4379;59.744;18.206;2024-01-15T16:03:16;-6.40;99.90